createdAt,value
2022-07-29T00:01:49.598Z,55.66
2022-07-29T00:04:16.528Z,55.28
2022-07-29T00:06:43.399Z,55.89
2022-07-29T00:09:09.896Z,56.11
2022-07-29T00:11:36.347Z,55.77
2022-07-29T00:14:03.162Z,56.04
2022-07-29T00:16:29.661Z,55.70
2022-07-29T00:18:56.197Z,55.95
2022-07-29T00:21:22.687Z,56.17
2022-07-29T00:23:49.084Z,56.04
2022-07-29T00:26:15.490Z,56.27
2022-07-29T00:28:41.998Z,56.39
2022-07-29T00:31:09.059Z,56.10
2022-07-29T00:33:35.495Z,55.83
2022-07-29T00:36:01.938Z,55.82
2022-07-29T00:38:28.394Z,56.36
2022-07-29T00:40:54.806Z,55.71
2022-07-29T00:43:21.230Z,55.82
2022-07-29T00:45:47.629Z,56.06
2022-07-29T00:48:14.053Z,55.95
2022-07-29T00:50:40.730Z,55.87
2022-07-29T00:53:08.231Z,56.09
2022-07-29T00:55:35.746Z,56.60
2022-07-29T00:58:02.186Z,56.88
2022-07-29T01:00:29.706Z,57.07
2022-07-29T01:02:56.256Z,56.92
2022-07-29T01:05:24.882Z,56.25
2022-07-29T01:07:54.600Z,56.72
2022-07-29T01:10:23.544Z,56.79
2022-07-29T01:12:52.094Z,56.51
2022-07-29T01:15:18.758Z,56.18
2022-07-29T01:18:18.160Z,56.31
2022-07-29T01:20:57.278Z,56.48
2022-07-29T01:24:05.790Z,56.20
2022-07-29T01:26:59.076Z,56.44
2022-07-29T01:29:38.871Z,56.25
2022-07-29T01:32:20.306Z,56.58
2022-07-29T01:35:02.859Z,56.79
2022-07-29T01:37:51.541Z,56.81
2022-07-29T01:40:25.245Z,56.72
2022-07-29T01:42:55.400Z,56.61
2022-07-29T01:45:34.673Z,56.96
2022-07-29T01:48:16.063Z,57.21
2022-07-29T01:50:52.730Z,56.84
2022-07-29T01:53:38.125Z,56.88
2022-07-29T01:56:07.470Z,56.86
2022-07-29T01:58:36.591Z,56.72
2022-07-29T02:01:04.510Z,57.11
2022-07-29T02:03:33.338Z,57.08
2022-07-29T02:06:04.098Z,56.50
2022-07-29T02:08:33.588Z,56.69
2022-07-29T02:11:03.176Z,56.84
2022-07-29T02:13:32.270Z,56.96
2022-07-29T02:16:00.489Z,56.85
2022-07-29T02:18:31.192Z,56.71
2022-07-29T02:21:00.313Z,56.52
2022-07-29T02:23:27.319Z,56.50
2022-07-29T02:25:58.656Z,56.73
2022-07-29T02:28:28.457Z,56.67
2022-07-29T02:30:58.242Z,56.41
2022-07-29T02:33:26.346Z,55.88
2022-07-29T02:35:53.557Z,56.30
2022-07-29T02:38:40.556Z,56.33
2022-07-29T02:41:12.463Z,56.67
2022-07-29T02:43:41.497Z,56.19
2022-07-29T02:46:28.449Z,56.10
2022-07-29T02:49:33.057Z,55.80
2022-07-29T02:52:03.347Z,55.43
2022-07-29T02:54:42.056Z,55.85
2022-07-29T02:57:54.785Z,56.24
2022-07-29T03:00:25.048Z,56.06
2022-07-29T03:02:55.012Z,56.14
2022-07-29T03:05:22.705Z,55.73
2022-07-29T03:07:57.033Z,55.50
2022-07-29T03:10:25.920Z,55.64
2022-07-29T03:12:52.861Z,55.37
2022-07-29T03:15:20.289Z,56.08
2022-07-29T03:17:47.182Z,55.84
2022-07-29T03:20:14.577Z,56.09
2022-07-29T03:22:44.929Z,56.05
2022-07-29T03:25:12.473Z,55.83
2022-07-29T03:27:39.053Z,56.19
2022-07-29T03:30:08.830Z,56.27
2022-07-29T03:32:36.171Z,56.20
2022-07-29T03:35:03.585Z,56.40
2022-07-29T03:37:31.455Z,56.42
2022-07-29T03:39:59.100Z,56.48
2022-07-29T03:42:34.073Z,56.52
2022-07-29T03:45:04.338Z,56.45
2022-07-29T03:47:50.391Z,56.65
2022-07-29T03:50:20.257Z,56.57
2022-07-29T03:52:47.565Z,56.35
2022-07-29T03:55:14.903Z,57.04
2022-07-29T03:57:42.477Z,56.51
2022-07-29T04:00:10.030Z,57.11
2022-07-29T04:02:38.706Z,56.60
2022-07-29T04:05:05.706Z,57.13
2022-07-29T04:07:32.112Z,56.88
2022-07-29T04:09:58.542Z,57.12
2022-07-29T04:12:25.882Z,56.98
2022-07-29T04:14:52.257Z,56.76
2022-07-29T04:17:18.682Z,57.52
2022-07-29T04:19:45.137Z,57.54
2022-07-29T04:22:11.518Z,57.34
2022-07-29T04:24:37.898Z,57.64
2022-07-29T04:27:04.427Z,57.36
2022-07-29T04:29:30.831Z,57.26
2022-07-29T04:31:57.235Z,57.10
2022-07-29T04:34:28.288Z,56.88
2022-07-29T04:36:55.156Z,57.18
2022-07-29T04:39:23.242Z,57.18
2022-07-29T04:41:51.055Z,57.30
2022-07-29T04:44:19.574Z,56.45
2022-07-29T04:46:46.631Z,56.69
2022-07-29T04:49:14.081Z,56.99
2022-07-29T04:51:40.842Z,56.83
2022-07-29T04:54:07.268Z,57.00
2022-07-29T04:56:33.812Z,57.10
2022-07-29T04:59:00.262Z,56.97
2022-07-29T05:01:26.682Z,56.92
2022-07-29T05:03:57.111Z,57.16
2022-07-29T05:06:26.405Z,57.20
2022-07-29T05:08:52.830Z,57.70
2022-07-29T05:11:21.799Z,57.64
2022-07-29T05:13:49.633Z,57.67
2022-07-29T05:16:16.121Z,58.18
2022-07-29T05:18:43.071Z,59.18
2022-07-29T05:21:09.601Z,59.06
2022-07-29T05:23:36.047Z,59.22
2022-07-29T05:26:02.593Z,59.28
2022-07-29T05:28:29.006Z,59.18
2022-07-29T05:30:55.545Z,59.10
2022-07-29T05:33:36.374Z,59.24
2022-07-29T05:36:08.035Z,59.30
2022-07-29T05:38:36.327Z,59.78
2022-07-29T05:41:03.029Z,59.53
2022-07-29T05:43:29.538Z,60.07
2022-07-29T05:45:56.317Z,60.49
2022-07-29T05:48:22.946Z,59.80
2022-07-29T05:50:49.331Z,60.03
2022-07-29T05:53:19.833Z,60.14
2022-07-29T05:55:48.620Z,59.92
2022-07-29T05:58:15.232Z,60.04
2022-07-29T06:00:41.907Z,60.06
2022-07-29T06:03:08.315Z,60.24
2022-07-29T06:05:34.859Z,59.72
2022-07-29T06:08:01.326Z,59.79
2022-07-29T06:10:27.823Z,59.88
2022-07-29T06:12:54.444Z,60.15
2022-07-29T06:15:21.087Z,60.31
2022-07-29T06:17:59.774Z,60.07
2022-07-29T06:20:32.131Z,59.37
2022-07-29T06:22:59.782Z,59.58
2022-07-29T06:25:26.980Z,59.54
2022-07-29T06:27:53.434Z,58.87
2022-07-29T06:30:19.926Z,59.00
2022-07-29T06:32:46.448Z,58.98
2022-07-29T06:35:37.768Z,58.74
2022-07-29T06:37:59.800Z,58.49
2022-07-29T06:40:45.568Z,57.93
2022-07-29T06:43:12.115Z,58.14
2022-07-29T06:45:42.032Z,58.08
2022-07-29T06:48:09.068Z,58.55
2022-07-29T06:50:35.540Z,58.52
2022-07-29T06:53:02.026Z,58.79
2022-07-29T06:55:28.461Z,58.62
2022-07-29T06:57:54.946Z,58.27
2022-07-29T07:00:21.426Z,58.09
2022-07-29T07:02:47.923Z,58.58
2022-07-29T07:05:14.438Z,58.71
2022-07-29T07:07:40.870Z,58.30
2022-07-29T07:10:07.707Z,58.43
2022-07-29T07:12:34.137Z,58.54
2022-07-29T07:15:00.653Z,58.47
2022-07-29T07:17:27.074Z,58.29
2022-07-29T07:19:53.513Z,58.20
2022-07-29T07:22:20.018Z,57.85
2022-07-29T07:24:46.417Z,57.63
2022-07-29T07:27:12.892Z,57.93
2022-07-29T07:29:42.000Z,57.68
2022-07-29T07:32:10.974Z,58.11
2022-07-29T07:34:38.717Z,58.33
2022-07-29T07:37:05.368Z,58.15
2022-07-29T07:39:31.800Z,57.63
2022-07-29T07:41:58.211Z,58.14
2022-07-29T07:44:24.627Z,57.80
2022-07-29T07:46:51.095Z,58.20
2022-07-29T07:49:17.630Z,57.88
2022-07-29T07:51:44.227Z,57.84
2022-07-29T07:54:17.801Z,57.33
2022-07-29T07:56:44.717Z,57.28
2022-07-29T07:59:11.282Z,57.24
2022-07-29T08:01:55.156Z,57.00
2022-07-29T08:04:27.493Z,56.74
2022-07-29T08:06:57.433Z,56.22
2022-07-29T08:09:29.683Z,57.16
2022-07-29T08:11:57.632Z,57.33
2022-07-29T08:14:24.081Z,57.32
2022-07-29T08:16:50.659Z,57.16
2022-07-29T08:19:17.158Z,57.41
2022-07-29T08:21:43.745Z,56.77
2022-07-29T08:24:28.732Z,56.98
2022-07-29T08:26:55.145Z,57.76
2022-07-29T08:29:21.573Z,57.88
2022-07-29T08:31:48.173Z,57.51
2022-07-29T08:34:14.668Z,57.92
2022-07-29T08:36:41.167Z,57.86
2022-07-29T08:39:07.575Z,57.63
2022-07-29T08:41:33.975Z,57.51
2022-07-29T08:44:00.417Z,57.40
2022-07-29T08:46:26.922Z,57.52
2022-07-29T08:48:53.403Z,57.39
2022-07-29T08:51:22.356Z,57.37
2022-07-29T08:53:50.367Z,56.96
2022-07-29T08:56:18.900Z,57.20
2022-07-29T08:58:50.625Z,56.55
2022-07-29T09:01:35.827Z,57.21
2022-07-29T09:04:05.369Z,57.49
2022-07-29T09:06:35.175Z,57.16
2022-07-29T09:09:01.945Z,57.47
2022-07-29T09:11:29.182Z,57.55
2022-07-29T09:13:55.593Z,57.29
2022-07-29T09:16:43.811Z,57.01
2022-07-29T09:19:24.906Z,56.83
2022-07-29T09:22:03.371Z,56.92
2022-07-29T09:24:43.831Z,57.03
2022-07-29T09:27:22.215Z,56.79
2022-07-29T09:30:00.197Z,57.17
2022-07-29T09:32:27.521Z,56.87
2022-07-29T09:35:17.304Z,56.53
2022-07-29T09:37:44.998Z,56.61
2022-07-29T09:40:16.899Z,56.74
2022-07-29T09:42:46.114Z,56.53
2022-07-29T09:45:13.853Z,56.42
2022-07-29T09:47:50.027Z,56.04
2022-07-29T09:50:17.259Z,55.78
2022-07-29T09:52:49.741Z,56.14
2022-07-29T09:55:18.182Z,56.50
2022-07-29T09:57:45.830Z,55.89
2022-07-29T10:00:18.870Z,55.77
2022-07-29T10:02:47.218Z,55.28
2022-07-29T10:05:25.621Z,55.25
2022-07-29T10:07:55.215Z,55.05
2022-07-29T10:10:25.149Z,55.19
2022-07-29T10:13:01.815Z,55.37
2022-07-29T10:15:38.129Z,55.80
2022-07-29T10:18:05.157Z,55.02
2022-07-29T10:20:31.589Z,54.19
2022-07-29T10:22:58.222Z,54.60
2022-07-29T10:25:26.274Z,54.41
2022-07-29T10:27:54.132Z,54.40
2022-07-29T10:30:22.932Z,54.25
2022-07-29T10:33:01.801Z,54.37
2022-07-29T10:35:53.125Z,53.99
2022-07-29T10:38:45.741Z,53.49
2022-07-29T10:41:27.786Z,53.78
2022-07-29T10:44:12.377Z,54.36
2022-07-29T10:46:44.929Z,54.30
2022-07-29T10:49:24.766Z,54.47
2022-07-29T10:52:10.421Z,54.05
2022-07-29T10:54:37.087Z,54.50
2022-07-29T10:57:19.446Z,53.91
2022-07-29T10:59:50.407Z,54.69
2022-07-29T11:02:41.955Z,54.23
2022-07-29T11:05:12.821Z,54.24
2022-07-29T11:07:45.862Z,54.20
2022-07-29T11:10:16.227Z,54.22
2022-07-29T11:12:42.743Z,54.71
2022-07-29T11:15:24.915Z,54.58
2022-07-29T11:17:54.605Z,54.61
2022-07-29T11:20:44.082Z,54.73
2022-07-29T11:23:33.997Z,54.16
2022-07-29T11:26:10.717Z,54.61
2022-07-29T11:28:52.087Z,54.69
2022-07-29T11:31:43.862Z,54.50
2022-07-29T11:34:31.746Z,54.11
2022-07-29T11:37:07.623Z,54.01
2022-07-29T11:39:36.596Z,53.89
2022-07-29T11:42:32.369Z,53.94
2022-07-29T11:45:41.271Z,54.00
2022-07-29T11:50:53.477Z,53.73
2022-07-29T11:53:20.401Z,53.76
2022-07-29T11:55:55.270Z,53.13
2022-07-29T11:58:26.197Z,53.31
2022-07-29T12:00:53.127Z,53.40
2022-07-29T12:03:35.317Z,52.76
2022-07-29T12:06:12.197Z,53.56
2022-07-29T12:07:03.511Z,54.32
2022-07-29T12:08:44.195Z,54.05
2022-07-29T12:11:22.437Z,53.90
2022-07-29T12:13:52.721Z,54.36
2022-07-29T12:16:29.209Z,54.36
2022-07-29T12:19:02.460Z,53.83
2022-07-29T12:21:30.385Z,53.92
2022-07-29T12:24:05.725Z,54.34
2022-07-29T12:26:35.625Z,53.78
2022-07-29T12:29:03.603Z,54.56
2022-07-29T12:31:42.049Z,54.54
2022-07-29T12:34:12.863Z,53.50
2022-07-29T12:36:39.442Z,53.81
2022-07-29T12:39:06.147Z,54.05
2022-07-29T12:41:33.175Z,53.00
2022-07-29T12:43:59.650Z,53.60
2022-07-29T12:46:26.351Z,53.99
2022-07-29T12:48:55.674Z,53.08
2022-07-29T12:51:34.183Z,53.22
2022-07-29T12:54:11.388Z,52.35
2022-07-29T12:56:43.505Z,52.63
2022-07-29T12:59:21.328Z,52.92
2022-07-29T13:01:50.343Z,52.26
2022-07-29T13:04:31.442Z,52.08
2022-07-29T13:07:08.048Z,51.41
2022-07-29T13:09:48.630Z,51.55
2022-07-29T13:12:15.413Z,51.17
2022-07-29T13:14:44.346Z,50.74
2022-07-29T13:17:13.705Z,50.81
2022-07-29T13:20:08.836Z,50.49
2022-07-29T13:22:36.682Z,50.70
2022-07-29T13:25:03.583Z,50.11
2022-07-29T13:27:37.369Z,49.32
2022-07-29T13:30:07.470Z,49.71
2022-07-29T13:32:37.386Z,49.76
2022-07-29T13:35:07.094Z,49.85
2022-07-29T13:37:35.738Z,49.74
2022-07-29T13:40:04.248Z,49.12
2022-07-29T13:42:31.442Z,49.50
2022-07-29T13:44:57.938Z,50.06
2022-07-29T13:47:32.607Z,50.01
2022-07-29T13:50:01.154Z,49.78
2022-07-29T13:52:28.196Z,49.73
2022-07-29T13:54:54.650Z,49.71
2022-07-29T13:57:21.088Z,49.70
2022-07-29T13:59:51.892Z,49.53
2022-07-29T14:02:20.305Z,50.12
2022-07-29T14:04:46.875Z,50.15
2022-07-29T14:07:16.309Z,49.61
2022-07-29T14:09:43.344Z,49.98
2022-07-29T14:12:10.236Z,49.94
2022-07-29T14:14:37.495Z,49.93
2022-07-29T14:17:04.845Z,49.89
2022-07-29T14:19:32.921Z,49.35
2022-07-29T14:21:59.911Z,49.28
2022-07-29T14:24:26.698Z,49.32
2022-07-29T14:26:53.254Z,48.64
2022-07-29T14:29:19.845Z,49.07
2022-07-29T14:31:46.294Z,48.72
2022-07-29T14:34:12.760Z,49.34
2022-07-29T14:36:39.315Z,49.43
2022-07-29T14:39:05.837Z,49.55
2022-07-29T14:41:32.262Z,49.11
2022-07-29T14:44:01.439Z,49.29
2022-07-29T14:46:28.694Z,49.26
2022-07-29T14:48:55.316Z,49.60
2022-07-29T14:51:21.786Z,49.80
2022-07-29T14:53:48.181Z,49.46
2022-07-29T14:56:35.404Z,49.61
2022-07-29T14:59:01.659Z,49.39
2022-07-29T15:01:28.262Z,49.57
2022-07-29T15:03:59.394Z,49.87
2022-07-29T15:06:26.437Z,49.64
2022-07-29T15:08:52.869Z,49.67
2022-07-29T15:11:19.301Z,49.56
2022-07-29T15:13:45.708Z,48.85
2022-07-29T15:16:12.196Z,49.25
2022-07-29T15:18:39.246Z,49.51
2022-07-29T15:21:07.781Z,49.72
2022-07-29T15:23:37.129Z,49.63
2022-07-29T15:26:04.986Z,49.44
2022-07-29T15:28:31.475Z,48.89
2022-07-29T15:30:58.064Z,49.18
2022-07-29T15:33:24.533Z,49.25
2022-07-29T15:35:51.015Z,49.77
2022-07-29T15:38:17.582Z,49.99
2022-07-29T15:40:44.690Z,49.77
2022-07-29T15:43:11.197Z,49.58
2022-07-29T15:45:40.446Z,49.31
2022-07-29T15:48:08.959Z,48.91
2022-07-29T15:50:35.674Z,49.43
2022-07-29T15:53:03.001Z,49.32
2022-07-29T15:55:29.467Z,49.55
2022-07-29T15:58:00.106Z,50.03
2022-07-29T16:00:27.084Z,49.82
2022-07-29T16:02:53.552Z,49.47
2022-07-29T16:05:19.999Z,49.61
2022-07-29T16:07:46.598Z,49.83
2022-07-29T16:10:14.859Z,49.77
2022-07-29T16:12:41.284Z,49.90
2022-07-29T16:15:10.351Z,49.47
2022-07-29T16:17:38.159Z,49.48
2022-07-29T16:20:05.915Z,49.50
2022-07-29T16:22:32.363Z,49.53
2022-07-29T16:24:58.817Z,49.20
2022-07-29T16:27:35.395Z,49.63
2022-07-29T16:30:06.230Z,49.39
2022-07-29T16:32:32.659Z,49.66
2022-07-29T16:34:59.094Z,49.46
2022-07-29T16:37:25.791Z,49.37
2022-07-29T16:39:55.319Z,49.14
2022-07-29T16:42:45.011Z,49.50
2022-07-29T16:45:26.132Z,49.32
2022-07-29T16:48:00.397Z,49.52
2022-07-29T16:50:28.697Z,49.29
2022-07-29T16:52:55.691Z,49.39
2022-07-29T16:55:22.458Z,49.86
2022-07-29T16:57:49.046Z,49.64
2022-07-29T17:00:17.402Z,50.09
2022-07-29T17:02:43.804Z,50.16
2022-07-29T17:05:12.162Z,50.33
2022-07-29T17:07:39.687Z,50.56
2022-07-29T17:10:10.068Z,50.62
2022-07-29T17:12:38.297Z,50.45
2022-07-29T17:15:06.748Z,50.63
2022-07-29T17:17:38.798Z,50.79
2022-07-29T17:20:19.831Z,50.98
2022-07-29T17:22:46.241Z,51.10
2022-07-29T17:25:13.647Z,51.21
2022-07-29T17:27:49.497Z,51.22
2022-07-29T17:30:16.065Z,50.97
2022-07-29T17:32:42.510Z,50.80
2022-07-29T17:35:28.035Z,51.51
2022-07-29T17:37:54.790Z,51.58
2022-07-29T17:40:21.520Z,51.31
2022-07-29T17:42:47.939Z,51.42
2022-07-29T17:45:14.405Z,51.71
2022-07-29T17:47:41.740Z,51.50
2022-07-29T17:50:08.561Z,51.45
2022-07-29T17:52:34.977Z,51.63
2022-07-29T17:55:02.404Z,51.66
2022-07-29T17:57:28.893Z,51.90
2022-07-29T17:59:55.311Z,52.04
2022-07-29T18:02:21.724Z,52.13
2022-07-29T18:04:50.646Z,52.40
2022-07-29T18:07:17.233Z,52.52
2022-07-29T18:09:43.861Z,52.36
2022-07-29T18:12:10.289Z,52.68
2022-07-29T18:14:36.832Z,53.01
2022-07-29T18:17:03.214Z,52.81
2022-07-29T18:19:29.699Z,52.25
2022-07-29T18:21:59.306Z,51.58
2022-07-29T18:24:31.483Z,51.36
2022-07-29T18:26:58.055Z,51.48
2022-07-29T18:29:24.834Z,52.12
2022-07-29T18:31:51.250Z,52.40
2022-07-29T18:34:17.690Z,52.84
2022-07-29T18:36:45.559Z,53.26
2022-07-29T18:39:13.104Z,53.07
2022-07-29T18:41:50.645Z,53.24
2022-07-29T18:44:21.884Z,53.28
2022-07-29T18:46:49.765Z,53.29
2022-07-29T18:49:16.380Z,52.95
2022-07-29T18:51:43.062Z,52.95
2022-07-29T18:54:10.398Z,53.17
2022-07-29T18:56:37.205Z,53.16
2022-07-29T18:59:04.155Z,53.22
2022-07-29T19:01:31.856Z,53.53
2022-07-29T19:03:58.673Z,53.24
2022-07-29T19:06:25.913Z,53.46
2022-07-29T19:08:52.690Z,53.66
2022-07-29T19:11:19.122Z,53.66
2022-07-29T19:13:45.647Z,53.94
2022-07-29T19:16:13.868Z,54.10
2022-07-29T19:18:41.311Z,54.12
2022-07-29T19:21:07.751Z,54.00
2022-07-29T19:24:01.530Z,53.91
2022-07-29T19:26:20.945Z,54.19
2022-07-29T19:28:48.876Z,54.19
2022-07-29T19:31:15.745Z,54.41
2022-07-29T19:33:42.576Z,54.64
2022-07-29T19:36:09.026Z,54.72
2022-07-29T19:38:35.462Z,55.04
2022-07-29T19:41:01.863Z,55.09
2022-07-29T19:43:49.923Z,55.53
2022-07-29T19:46:14.698Z,56.17
2022-07-29T19:48:41.204Z,57.00
2022-07-29T19:51:07.712Z,57.30
2022-07-29T19:53:34.141Z,57.64
2022-07-29T19:56:00.565Z,57.74
2022-07-29T19:58:27.212Z,57.93
2022-07-29T20:00:54.672Z,58.46
2022-07-29T20:03:21.098Z,58.61
2022-07-29T20:05:50.907Z,58.78
2022-07-29T20:08:17.917Z,58.99
2022-07-29T20:10:44.454Z,59.00
2022-07-29T20:13:10.979Z,58.98
2022-07-29T20:15:37.663Z,59.36
2022-07-29T20:18:04.249Z,59.04
2022-07-29T20:20:30.786Z,59.14
2022-07-29T20:22:57.224Z,59.16
2022-07-29T20:25:23.898Z,59.31
2022-07-29T20:27:52.272Z,59.57
2022-07-29T20:30:22.409Z,59.78
2022-07-29T20:32:49.657Z,59.78
2022-07-29T20:35:16.282Z,59.78
2022-07-29T20:37:52.241Z,59.87
2022-07-29T20:40:24.625Z,59.72
2022-07-29T20:42:51.031Z,59.79
2022-07-29T20:45:17.817Z,59.93
2022-07-29T20:47:44.211Z,60.38
2022-07-29T20:50:10.683Z,60.46
2022-07-29T20:52:39.375Z,60.62
2022-07-29T20:55:08.162Z,60.77
2022-07-29T20:57:38.998Z,60.83
2022-07-29T21:00:07.235Z,61.19
2022-07-29T21:02:33.706Z,61.25
2022-07-29T21:05:00.813Z,61.30
2022-07-29T21:07:27.228Z,61.12
2022-07-29T21:09:53.643Z,61.11
2022-07-29T21:12:20.034Z,61.12
2022-07-29T21:14:49.755Z,61.24
2022-07-29T21:17:16.851Z,61.25
2022-07-29T21:19:43.317Z,61.43
2022-07-29T21:22:09.813Z,61.50
2022-07-29T21:24:36.276Z,61.34
2022-07-29T21:27:21.885Z,61.40
2022-07-29T21:29:48.778Z,61.29
2022-07-29T21:32:29.471Z,61.32
2022-07-29T21:34:57.876Z,61.21
2022-07-29T21:37:24.313Z,61.19
2022-07-29T21:39:50.771Z,61.13
2022-07-29T21:42:17.182Z,61.12
2022-07-29T21:44:43.796Z,61.08
2022-07-29T21:47:11.682Z,60.77
2022-07-29T21:49:38.179Z,61.25
2022-07-29T21:52:05.532Z,61.67
2022-07-29T21:54:34.510Z,61.82
2022-07-29T21:57:00.988Z,61.91
2022-07-29T21:59:27.477Z,61.76
2022-07-29T22:01:54.065Z,61.91
2022-07-29T22:04:20.835Z,61.89
2022-07-29T22:06:47.624Z,61.86
2022-07-29T22:09:14.066Z,61.71
2022-07-29T22:11:40.897Z,61.74
2022-07-29T22:14:07.430Z,62.01
2022-07-29T22:16:34.005Z,62.06
2022-07-29T22:19:00.530Z,62.01
2022-07-29T22:21:27.010Z,62.07
2022-07-29T22:23:53.417Z,62.23
2022-07-29T22:26:19.856Z,62.32
2022-07-29T22:28:46.241Z,62.20
2022-07-29T22:31:12.747Z,62.29
2022-07-29T22:33:39.226Z,62.74
2022-07-29T22:36:05.860Z,62.77
2022-07-29T22:38:32.272Z,62.95
2022-07-29T22:41:00.613Z,62.94
2022-07-29T22:43:28.280Z,63.23
2022-07-29T22:45:54.831Z,63.41
2022-07-29T22:48:21.289Z,63.33
2022-07-29T22:50:47.708Z,63.02
2022-07-29T22:53:14.125Z,63.02
2022-07-29T22:55:40.543Z,63.22
2022-07-29T22:58:06.950Z,63.22
2022-07-29T23:00:33.581Z,63.19
2022-07-29T23:02:59.988Z,63.00
2022-07-29T23:05:26.386Z,63.19
2022-07-29T23:07:52.798Z,63.18
2022-07-29T23:10:19.269Z,63.23
2022-07-29T23:12:45.705Z,63.20
2022-07-29T23:15:12.331Z,63.22
2022-07-29T23:17:38.903Z,63.27
2022-07-29T23:20:07.748Z,63.16
2022-07-29T23:22:35.352Z,63.38
2022-07-29T23:25:01.918Z,63.34
2022-07-29T23:27:28.336Z,63.48
2022-07-29T23:29:54.721Z,63.37
2022-07-29T23:32:21.162Z,63.52
2022-07-29T23:34:47.570Z,63.78
2022-07-29T23:37:13.969Z,63.78
2022-07-29T23:39:40.371Z,63.90
2022-07-29T23:42:06.791Z,63.94
2022-07-29T23:44:33.191Z,63.94
2022-07-29T23:46:59.929Z,63.99
2022-07-29T23:49:26.674Z,63.92
2022-07-29T23:51:53.066Z,63.74
2022-07-29T23:54:19.445Z,63.67
2022-07-29T23:56:46.438Z,63.78
2022-07-29T23:59:12.905Z,63.89
